sensor_id;sensor_type;location;lat;lon;timestamp;pressure;altitude;pressure_sealevel;temperature;humidity
11605;BME280;5858;43.076;25.626;2024-03-17T09:46:05;99655.81;;;12.70;67.06
11605;BME280;5858;43.076;25.626;2024-03-17T09:48:32;99647.28;;;12.81;68.63
11605;BME280;5858;43.076;25.626;2024-03-17T09:51:00;99635.91;;;12.79;59.31
11605;BME280;5858;43.076;25.626;2024-03-17T09:53:28;99653.81;;;12.93;62.52
11605;BME280;5858;43.076;25.626;2024-03-17T09:55:58;99643.97;;;13.01;61.74
11605;BME280;5858;43.076;25.626;2024-03-17T09:58:25;99654.78;;;13.07;59.06
11605;BME280;5858;43.076;25.626;2024-03-17T10:00:52;99641.69;;;13.19;58.37
11605;BME280;5858;43.076;25.626;2024-03-17T10:03:41;99644.19;;;13.42;58.48
11605;BME280;5858;43.076;25.626;2024-03-17T10:06:10;99642.16;;;13.44;56.01
11605;BME280;5858;43.076;25.626;2024-03-17T10:08:45;99640.97;;;13.53;58.85
11605;BME280;5858;43.076;25.626;2024-03-17T10:11:13;99643.59;;;13.96;56.62
11605;BME280;5858;43.076;25.626;2024-03-17T10:13:41;99628.66;;;13.93;53.62
11605;BME280;5858;43.076;25.626;2024-03-17T10:16:21;99637.69;;;14.13;56.56
11605;BME280;5858;43.076;25.626;2024-03-17T10:18:51;99641.97;;;14.36;58.31
11605;BME280;5858;43.076;25.626;2024-03-17T10:21:25;99636.66;;;14.14;54.40
11605;BME280;5858;43.076;25.626;2024-03-17T10:24:05;99639.34;;;14.14;52.30
11605;BME280;5858;43.076;25.626;2024-03-17T10:26:35;99628.66;;;14.28;53.58
11605;BME280;5858;43.076;25.626;2024-03-17T10:29:02;99636.31;;;14.24;54.84
11605;BME280;5858;43.076;25.626;2024-03-17T10:31:29;99631.22;;;14.08;54.66
11605;BME280;5858;43.076;25.626;2024-03-17T10:34:02;99631.72;;;13.83;53.11
11605;BME280;5858;43.076;25.626;2024-03-17T10:36:29;99623.91;;;13.67;52.95
11605;BME280;5858;43.076;25.626;2024-03-17T10:38:55;99631.03;;;13.75;52.20
11605;BME280;5858;43.076;25.626;2024-03-17T10:41:22;99614.13;;;13.60;53.28
11605;BME280;5858;43.076;25.626;2024-03-17T10:43:53;99617.03;;;13.58;53.35
11605;BME280;5858;43.076;25.626;2024-03-17T10:46:21;99610.19;;;13.55;54.16
11605;BME280;5858;43.076;25.626;2024-03-17T10:48:50;99595.38;;;13.38;53.70
11605;BME280;5858;43.076;25.626;2024-03-17T10:51:20;99612.00;;;13.48;52.92
11605;BME280;5858;43.076;25.626;2024-03-17T10:53:48;99608.41;;;13.41;53.62
11605;BME280;5858;43.076;25.626;2024-03-17T10:56:19;99602.47;;;13.46;53.88
11605;BME280;5858;43.076;25.626;2024-03-17T10:58:48;99588.88;;;13.54;53.20
11605;BME280;5858;43.076;25.626;2024-03-17T11:01:22;99598.44;;;13.91;52.42
11605;BME280;5858;43.076;25.626;2024-03-17T11:03:50;99602.13;;;13.83;52.32
11605;BME280;5858;43.076;25.626;2024-03-17T11:06:19;99599.38;;;13.77;51.92
11605;BME280;5858;43.076;25.626;2024-03-17T11:08:46;99590.41;;;13.70;52.38
11605;BME280;5858;43.076;25.626;2024-03-17T11:11:14;99589.94;;;13.60;51.94
11605;BME280;5858;43.076;25.626;2024-03-17T11:13:40;99591.75;;;13.52;51.54
11605;BME280;5858;43.076;25.626;2024-03-17T11:16:25;99590.94;;;13.52;52.66
11605;BME280;5858;43.076;25.626;2024-03-17T11:18:53;99577.88;;;13.49;52.47
11605;BME280;5858;43.076;25.626;2024-03-17T11:21:33;99585.44;;;13.67;51.16
11605;BME280;5858;43.076;25.626;2024-03-17T11:24:02;99587.09;;;13.68;51.67
11605;BME280;5858;43.076;25.626;2024-03-17T11:26:31;99565.06;;;13.51;50.86
11605;BME280;5858;43.076;25.626;2024-03-17T11:28:58;99584.16;;;13.63;51.38
11605;BME280;5858;43.076;25.626;2024-03-17T11:31:40;99576.78;;;13.71;50.37
11605;BME280;5858;43.076;25.626;2024-03-17T11:36:52;99574.56;;;13.47;53.54
11605;BME280;5858;43.076;25.626;2024-03-17T11:39:20;99570.88;;;13.54;55.56
11605;BME280;5858;43.076;25.626;2024-03-17T11:41:49;99567.94;;;13.49;56.35
11605;BME280;5858;43.076;25.626;2024-03-17T11:44:25;99567.88;;;13.36;56.78
11605;BME280;5858;43.076;25.626;2024-03-17T11:46:53;99555.41;;;13.29;57.80
11605;BME280;5858;43.076;25.626;2024-03-17T11:49:21;99563.69;;;13.34;58.00
11605;BME280;5858;43.076;25.626;2024-03-17T11:51:48;99537.63;;;13.28;58.19
11605;BME280;5858;43.076;25.626;2024-03-17T11:54:17;99560.38;;;13.32;58.60
11605;BME280;5858;43.076;25.626;2024-03-17T11:56:45;99549.75;;;13.23;58.34
11605;BME280;5858;43.076;25.626;2024-03-17T12:09:09;99521.69;;;15.95;43.46
11605;BME280;5858;43.076;25.626;2024-03-17T12:11:37;99461.16;;;15.71;42.59
11605;BME280;5858;43.076;25.626;2024-03-17T12:14:19;99528.47;;;16.17;42.13
11605;BME280;5858;43.076;25.626;2024-03-17T12:16:47;99533.84;;;16.24;41.97
11605;BME280;5858;43.076;25.626;2024-03-17T12:19:14;99526.16;;;16.21;40.89
11605;BME280;5858;43.076;25.626;2024-03-17T12:21:53;99466.25;;;15.92;41.65
11605;BME280;5858;43.076;25.626;2024-03-17T12:24:25;99524.41;;;15.88;41.00
11605;BME280;5858;43.076;25.626;2024-03-17T12:26:54;99503.25;;;15.85;41.53
11605;BME280;5858;43.076;25.626;2024-03-17T12:29:36;99505.56;;;15.75;40.22
11605;BME280;5858;43.076;25.626;2024-03-17T12:32:12;99526.63;;;16.04;40.04
11605;BME280;5858;43.076;25.626;2024-03-17T12:34:40;99514.38;;;16.09;40.86
11605;BME280;5858;43.076;25.626;2024-03-17T12:37:07;99525.31;;;16.27;40.76
11605;BME280;5858;43.076;25.626;2024-03-17T12:39:35;99449.38;;;15.46;38.41
11605;BME280;5858;43.076;25.626;2024-03-17T12:42:02;99503.25;;;15.85;39.12
11605;BME280;5858;43.076;25.626;2024-03-17T12:44:29;99420.28;;;15.54;38.58
11605;BME280;5858;43.076;25.626;2024-03-17T12:46:56;99464.25;;;15.74;38.62
11605;BME280;5858;43.076;25.626;2024-03-17T12:49:28;99464.38;;;15.93;39.49
11605;BME280;5858;43.076;25.626;2024-03-17T12:51:54;99509.09;;;16.27;38.94
11605;BME280;5858;43.076;25.626;2024-03-17T12:54:23;99481.09;;;16.21;38.70
11605;BME280;5858;43.076;25.626;2024-03-17T12:57:06;99511.28;;;16.43;39.01
11605;BME280;5858;43.076;25.626;2024-03-17T12:59:51;99507.38;;;16.39;37.71
11605;BME280;5858;43.076;25.626;2024-03-17T13:02:41;99475.09;;;16.19;37.56
11605;BME280;5858;43.076;25.626;2024-03-17T13:05:32;99365.19;;;15.37;38.02
11605;BME280;5858;43.076;25.626;2024-03-17T13:08:05;99495.81;;;16.25;37.97
11605;BME280;5858;43.076;25.626;2024-03-17T13:10:43;99462.06;;;16.10;37.64
11605;BME280;5858;43.076;25.626;2024-03-17T13:13:12;99482.38;;;16.05;36.10
11605;BME280;5858;43.076;25.626;2024-03-17T13:15:41;99470.75;;;16.05;37.25
11605;BME280;5858;43.076;25.626;2024-03-17T13:18:08;99485.00;;;16.25;38.29
11605;BME280;5858;43.076;25.626;2024-03-17T13:20:35;99466.41;;;16.04;39.90
11605;BME280;5858;43.076;25.626;2024-03-17T13:23:02;99455.47;;;15.92;40.37
11605;BME280;5858;43.076;25.626;2024-03-17T13:25:30;99472.03;;;16.09;40.52
11605;BME280;5858;43.076;25.626;2024-03-17T13:28:00;99484.97;;;16.32;38.07
11605;BME280;5858;43.076;25.626;2024-03-17T13:30:30;99473.53;;;16.36;37.88
11605;BME280;5858;43.076;25.626;2024-03-17T13:32:59;99483.09;;;16.32;37.91
11605;BME280;5858;43.076;25.626;2024-03-17T13:35:27;99444.03;;;16.35;37.43
11605;BME280;5858;43.076;25.626;2024-03-17T13:37:56;99468.78;;;16.32;38.44
11605;BME280;5858;43.076;25.626;2024-03-17T13:40:25;99444.06;;;16.28;40.09
11605;BME280;5858;43.076;25.626;2024-03-17T13:42:54;99435.94;;;16.35;39.75
11605;BME280;5858;43.076;25.626;2024-03-17T13:45:22;99463.38;;;16.32;39.52
11605;BME280;5858;43.076;25.626;2024-03-17T13:47:55;99464.94;;;16.46;39.35
11605;BME280;5858;43.076;25.626;2024-03-17T13:50:22;99466.53;;;16.54;37.17
11605;BME280;5858;43.076;25.626;2024-03-17T13:52:49;99464.88;;;16.59;37.42
11605;BME280;5858;43.076;25.626;2024-03-17T13:55:18;99413.19;;;16.49;36.83
11605;BME280;5858;43.076;25.626;2024-03-17T13:57:47;99441.50;;;16.40;37.53
11605;BME280;5858;43.076;25.626;2024-03-17T14:00:17;99446.47;;;16.05;37.57
11605;BME280;5858;43.076;25.626;2024-03-17T14:02:45;99449.72;;;16.20;36.79
11605;BME280;5858;43.076;25.626;2024-03-17T14:05:15;99463.38;;;16.32;34.64
11605;BME280;5858;43.076;25.626;2024-03-17T14:07:43;99448.94;;;16.13;35.50
11605;BME280;5858;43.076;25.626;2024-03-17T14:10:12;99463.97;;;16.34;35.89
11605;BME280;5858;43.076;25.626;2024-03-17T14:12:54;99441.97;;;15.92;35.29
11605;BME280;5858;43.076;25.626;2024-03-17T15:22:55;99458.38;;;15.91;36.79
11605;BME280;5858;43.076;25.626;2024-03-17T15:25:23;99412.25;;;15.41;36.90
11605;BME280;5858;43.076;25.626;2024-03-17T15:27:50;99423.72;;;15.10;37.85
11605;BME280;5858;43.076;25.626;2024-03-17T15:30:18;99434.50;;;15.03;38.36
11605;BME280;5858;43.076;25.626;2024-03-17T15:32:45;99428.09;;;14.98;38.91
11605;BME280;5858;43.076;25.626;2024-03-17T15:35:12;99446.28;;;15.35;38.77
11605;BME280;5858;43.076;25.626;2024-03-17T15:37:40;99416.69;;;15.02;38.61
11605;BME280;5858;43.076;25.626;2024-03-17T15:40:09;99367.19;;;14.51;39.33
11605;BME280;5858;43.076;25.626;2024-03-17T15:42:42;99442.19;;;15.00;39.05
11605;BME280;5858;43.076;25.626;2024-03-17T15:45:10;99422.72;;;14.91;39.08
11605;BME280;5858;43.076;25.626;2024-03-17T15:47:37;99448.81;;;15.04;39.18
11605;BME280;5858;43.076;25.626;2024-03-17T15:50:04;99431.19;;;14.95;39.00
11605;BME280;5858;43.076;25.626;2024-03-17T15:52:31;99377.94;;;14.37;39.16
11605;BME280;5858;43.076;25.626;2024-03-17T15:55:00;99423.13;;;14.82;39.37
11605;BME280;5858;43.076;25.626;2024-03-17T15:57:29;99307.50;;;14.07;39.81
11605;BME280;5858;43.076;25.626;2024-03-17T15:59:57;99369.88;;;14.64;39.64
11605;BME280;5858;43.076;25.626;2024-03-17T16:02:25;99416.06;;;14.94;39.44
11605;BME280;5858;43.076;25.626;2024-03-17T16:04:53;99363.06;;;14.68;40.20
11605;BME280;5858;43.076;25.626;2024-03-17T16:07:22;99414.00;;;14.83;39.94
11605;BME280;5858;43.076;25.626;2024-03-17T16:09:50;99374.66;;;14.55;40.22
11605;BME280;5858;43.076;25.626;2024-03-17T16:12:18;99450.88;;;14.95;40.72
11605;BME280;5858;43.076;25.626;2024-03-17T16:14:48;99358.06;;;14.38;40.98
11605;BME280;5858;43.076;25.626;2024-03-17T16:17:15;99458.75;;;14.97;41.30
11605;BME280;5858;43.076;25.626;2024-03-17T16:19:42;99409.88;;;14.67;41.49
11605;BME280;5858;43.076;25.626;2024-03-17T16:22:11;99350.81;;;14.32;41.85
11605;BME280;5858;43.076;25.626;2024-03-17T16:24:40;99448.41;;;14.87;42.16
11605;BME280;5858;43.076;25.626;2024-03-17T16:27:10;99391.44;;;14.51;42.39
11605;BME280;5858;43.076;25.626;2024-03-17T16:29:37;99387.50;;;14.46;42.54
11605;BME280;5858;43.076;25.626;2024-03-17T16:32:07;99373.00;;;14.47;42.66
11605;BME280;5858;43.076;25.626;2024-03-17T16:34:34;99378.78;;;14.44;42.98
11605;BME280;5858;43.076;25.626;2024-03-17T16:37:03;99402.56;;;14.41;43.46
11605;BME280;5858;43.076;25.626;2024-03-17T16:39:30;99450.03;;;14.62;43.68
11605;BME280;5858;43.076;25.626;2024-03-17T16:41:57;99446.56;;;14.68;43.89
11605;BME280;5858;43.076;25.626;2024-03-17T16:44:28;99378.31;;;14.14;44.12
11605;BME280;5858;43.076;25.626;2024-03-17T16:47:22;99355.06;;;13.74;44.81
11605;BME280;5858;43.076;25.626;2024-03-17T16:49:56;99431.13;;;14.22;45.08
11605;BME280;5858;43.076;25.626;2024-03-17T16:52:26;99386.34;;;14.01;45.14
11605;BME280;5858;43.076;25.626;2024-03-17T16:54:54;99447.50;;;14.27;45.51
11605;BME280;5858;43.076;25.626;2024-03-17T16:57:22;99451.03;;;14.34;45.21
11605;BME280;5858;43.076;25.626;2024-03-17T16:59:49;99365.44;;;13.90;45.41
11605;BME280;5858;43.076;25.626;2024-03-17T17:02:18;99457.66;;;14.32;45.74
11605;BME280;5858;43.076;25.626;2024-03-17T17:04:45;99455.34;;;14.22;45.84
11605;BME280;5858;43.076;25.626;2024-03-17T17:07:22;99386.66;;;13.65;46.21
11605;BME280;5858;43.076;25.626;2024-03-17T17:09:51;99400.56;;;13.75;46.13
11605;BME280;5858;43.076;25.626;2024-03-17T17:12:21;99448.22;;;14.01;46.20
11605;BME280;5858;43.076;25.626;2024-03-17T17:14:51;99474.97;;;14.09;46.67
11605;BME280;5858;43.076;25.626;2024-03-17T17:17:35;99439.28;;;13.88;46.71
11605;BME280;5858;43.076;25.626;2024-03-17T17:20:06;99332.84;;;13.11;46.34
11605;BME280;5858;43.076;25.626;2024-03-17T17:22:46;99345.44;;;13.10;46.54
11605;BME280;5858;43.076;25.626;2024-03-17T17:25:29;99493.56;;;13.98;46.72
11605;BME280;5858;43.076;25.626;2024-03-17T17:27:59;99342.28;;;13.00;47.49
11605;BME280;5858;43.076;25.626;2024-03-17T17:30:27;99454.28;;;13.62;46.88
11605;BME280;5858;43.076;25.626;2024-03-17T17:32:58;99346.91;;;12.78;47.38
11605;BME280;5858;43.076;25.626;2024-03-17T17:35:30;99445.06;;;13.37;47.63
11605;BME280;5858;43.076;25.626;2024-03-17T17:38:08;99361.22;;;12.85;48.27
11605;BME280;5858;43.076;25.626;2024-03-17T17:40:37;99430.19;;;13.41;48.47
11605;BME280;5858;43.076;25.626;2024-03-17T17:43:06;99368.75;;;13.03;47.91
11605;BME280;5858;43.076;25.626;2024-03-17T17:46:04;99456.72;;;13.57;48.27
11605;BME280;5858;43.076;25.626;2024-03-17T17:48:36;99340.94;;;12.83;48.06
11605;BME280;5858;43.076;25.626;2024-03-17T17:51:04;99426.28;;;13.15;48.49
11605;BME280;5858;43.076;25.626;2024-03-17T17:53:34;99440.16;;;13.19;48.77
11605;BME280;5858;43.076;25.626;2024-03-17T17:56:12;99357.97;;;12.69;48.64
11605;BME280;5858;43.076;25.626;2024-03-17T17:58:40;99346.16;;;12.63;48.92
11605;BME280;5858;43.076;25.626;2024-03-17T18:01:17;99386.88;;;12.95;48.82
11605;BME280;5858;43.076;25.626;2024-03-17T18:03:58;99487.94;;;13.51;48.86
11605;BME280;5858;43.076;25.626;2024-03-17T18:06:31;99376.09;;;12.88;48.72
11605;BME280;5858;43.076;25.626;2024-03-17T18:09:15;99451.56;;;13.21;49.38
11605;BME280;5858;43.076;25.626;2024-03-17T18:12:05;99301.81;;;12.39;49.74
11605;BME280;5858;43.076;25.626;2024-03-17T18:14:55;99393.84;;;12.82;49.88
11605;BME280;5858;43.076;25.626;2024-03-17T18:18:35;99378.13;;;12.79;50.21
11605;BME280;5858;43.076;25.626;2024-03-17T18:24:54;99324.00;;;12.26;51.94
11605;BME280;5858;43.076;25.626;2024-03-17T18:27:47;99358.09;;;12.54;51.94
11605;BME280;5858;43.076;25.626;2024-03-17T18:30:41;99319.16;;;12.15;51.34
11605;BME280;5858;43.076;25.626;2024-03-17T18:33:44;99330.38;;;12.25;51.87
11605;BME280;5858;43.076;25.626;2024-03-17T18:36:24;99484.13;;;13.11;52.34
11605;BME280;5858;43.076;25.626;2024-03-17T18:38:55;99411.28;;;12.72;52.68
11605;BME280;5858;43.076;25.626;2024-03-17T18:41:59;99414.78;;;12.72;53.12
11605;BME280;5858;43.076;25.626;2024-03-17T18:45:27;99306.84;;;12.00;52.87
11605;BME280;5858;43.076;25.626;2024-03-17T18:49:56;99384.78;;;12.34;53.88
11605;BME280;5858;43.076;25.626;2024-03-17T18:52:03;99346.19;;;12.14;54.23
11605;BME280;5858;43.076;25.626;2024-03-17T18:57:50;99317.44;;;12.08;55.23
11605;BME280;5858;43.076;25.626;2024-03-17T19:00:29;99396.44;;;12.48;55.06
11605;BME280;5858;43.076;25.626;2024-03-17T19:03:02;99351.09;;;12.32;55.26
11605;BME280;5858;43.076;25.626;2024-03-17T19:05:30;99322.03;;;12.14;55.39
11605;BME280;5858;43.076;25.626;2024-03-17T19:08:29;99468.00;;;13.11;55.99
11605;BME280;5858;43.076;25.626;2024-03-17T19:11:13;99379.31;;;12.49;56.03
11605;BME280;5858;43.076;25.626;2024-03-17T19:14:10;99302.31;;;12.00;57.30
11605;BME280;5858;43.076;25.626;2024-03-17T19:17:00;99368.63;;;12.55;57.59
11605;BME280;5858;43.076;25.626;2024-03-17T19:20:08;99306.19;;;12.19;57.56
11605;BME280;5858;43.076;25.626;2024-03-17T19:24:44;99432.78;;;13.00;58.82
11605;BME280;5858;43.076;25.626;2024-03-17T19:25:58;99304.19;;;12.00;59.82
11605;BME280;5858;43.076;25.626;2024-03-17T19:31:36;99427.13;;;12.88;58.72
11605;BME280;5858;43.076;25.626;2024-03-17T19:34:16;99402.19;;;12.73;58.03
11605;BME280;5858;43.076;25.626;2024-03-17T19:36:47;99464.88;;;13.08;58.47
11605;BME280;5858;43.076;25.626;2024-03-17T19:39:33;99393.66;;;12.63;58.09
11605;BME280;5858;43.076;25.626;2024-03-17T19:42:40;99468.78;;;13.05;58.95
11605;BME280;5858;43.076;25.626;2024-03-17T19:45:18;99451.31;;;12.88;58.93
11605;BME280;5858;43.076;25.626;2024-03-17T19:47:51;99304.19;;;12.00;58.97
11605;BME280;5858;43.076;25.626;2024-03-17T19:50:30;99379.66;;;12.39;57.94
11605;BME280;5858;43.076;25.626;2024-03-17T19:53:21;99351.78;;;12.19;57.29
11605;BME280;5858;43.076;25.626;2024-03-17T19:55:52;99482.34;;;12.97;56.51
11605;BME280;5858;43.076;25.626;2024-03-17T19:58:24;99423.00;;;12.64;55.71
11605;BME280;5858;43.076;25.626;2024-03-17T20:00:54;99336.66;;;12.11;55.50
11605;BME280;5858;43.076;25.626;2024-03-17T20:03:25;99362.66;;;12.11;56.13
11605;BME280;5858;43.076;25.626;2024-03-17T20:05:55;99345.94;;;12.09;56.72
11605;BME280;5858;43.076;25.626;2024-03-17T20:08:33;99446.72;;;12.60;57.70
11605;BME280;5858;43.076;25.626;2024-03-17T20:11:02;99417.03;;;12.41;58.98
11605;BME280;5858;43.076;25.626;2024-03-17T20:13:33;99388.78;;;12.23;58.75
11605;BME280;5858;43.076;25.626;2024-03-17T20:16:03;99408.47;;;12.31;58.75
11605;BME280;5858;43.076;25.626;2024-03-17T20:18:33;99423.91;;;12.50;59.13
11605;BME280;5858;43.076;25.626;2024-03-17T20:21:05;99368.91;;;12.18;59.24
11605;BME280;5858;43.076;25.626;2024-03-17T20:23:35;99473.38;;;12.83;59.54
11605;BME280;5858;43.076;25.626;2024-03-17T20:26:02;99325.13;;;11.89;60.17
11605;BME280;5858;43.076;25.626;2024-03-17T20:28:30;99315.16;;;11.83;60.51
11605;BME280;5858;43.076;25.626;2024-03-17T20:30:59;99270.00;;;11.65;60.63
11605;BME280;5858;43.076;25.626;2024-03-17T20:33:26;99426.66;;;12.56;61.66
11605;BME280;5858;43.076;25.626;2024-03-17T20:35:59;99329.84;;;11.87;61.72
11605;BME280;5858;43.076;25.626;2024-03-17T20:38:27;99357.03;;;12.06;61.25
11605;BME280;5858;43.076;25.626;2024-03-17T20:40:55;99413.75;;;12.45;61.92
11605;BME280;5858;43.076;25.626;2024-03-17T20:43:29;99464.72;;;12.67;62.46
11605;BME280;5858;43.076;25.626;2024-03-17T20:46:02;99382.13;;;12.19;63.11
11605;BME280;5858;43.076;25.626;2024-03-17T20:48:39;99408.28;;;12.32;63.83
11605;BME280;5858;43.076;25.626;2024-03-17T20:51:10;99392.72;;;12.27;63.74
11605;BME280;5858;43.076;25.626;2024-03-17T20:53:37;99396.03;;;12.29;63.94
11605;BME280;5858;43.076;25.626;2024-03-17T20:56:05;99438.41;;;12.55;63.39
11605;BME280;5858;43.076;25.626;2024-03-17T20:58:35;99367.38;;;12.09;63.57
11605;BME280;5858;43.076;25.626;2024-03-17T21:01:02;99448.63;;;12.67;63.50
11605;BME280;5858;43.076;25.626;2024-03-17T21:03:30;99444.72;;;12.69;63.18
11605;BME280;5858;43.076;25.626;2024-03-17T21:05:57;99320.78;;;11.88;63.22
11605;BME280;5858;43.076;25.626;2024-03-17T21:08:25;99292.59;;;11.78;63.11
11605;BME280;5858;43.076;25.626;2024-03-17T21:10:56;99316.16;;;11.82;63.82
11605;BME280;5858;43.076;25.626;2024-03-17T21:13:27;99447.00;;;12.72;63.82
11605;BME280;5858;43.076;25.626;2024-03-17T21:15:56;99420.66;;;12.54;64.01
11605;BME280;5858;43.076;25.626;2024-03-17T21:18:23;99373.44;;;12.17;64.38
11605;BME280;5858;43.076;25.626;2024-03-17T21:20:50;99330.34;;;11.97;64.50
11605;BME280;5858;43.076;25.626;2024-03-17T21:23:17;99373.13;;;12.27;64.60
11605;BME280;5858;43.076;25.626;2024-03-17T21:25:48;99408.25;;;12.53;64.82
11605;BME280;5858;43.076;25.626;2024-03-17T21:28:15;99287.41;;;11.76;65.34
11605;BME280;5858;43.076;25.626;2024-03-17T21:30:43;99318.03;;;12.03;65.68
11605;BME280;5858;43.076;25.626;2024-03-17T21:33:12;99453.31;;;12.79;66.24
11605;BME280;5858;43.076;25.626;2024-03-17T21:35:41;99289.00;;;11.85;67.07
11605;BME280;5858;43.076;25.626;2024-03-17T21:38:12;99406.34;;;12.47;66.82
11605;BME280;5858;43.076;25.626;2024-03-17T21:40:43;99269.16;;;11.65;67.49
11605;BME280;5858;43.076;25.626;2024-03-17T21:43:14;99292.97;;;11.75;69.46
11605;BME280;5858;43.076;25.626;2024-03-17T21:46:11;99338.91;;;11.86;69.99
11605;BME280;5858;43.076;25.626;2024-03-17T21:48:38;99460.06;;;12.54;71.84
11605;BME280;5858;43.076;25.626;2024-03-17T21:51:05;99291.31;;;11.52;72.03
11605;BME280;5858;43.076;25.626;2024-03-17T21:53:32;99385.84;;;11.97;74.43
11605;BME280;5858;43.076;25.626;2024-03-17T21:56:00;99460.91;;;12.33;75.49
11605;BME280;5858;43.076;25.626;2024-03-17T21:58:29;99403.97;;;11.95;76.09
11605;BME280;5858;43.076;25.626;2024-03-17T22:01:01;99463.41;;;12.35;76.97
11605;BME280;5858;43.076;25.626;2024-03-17T22:03:32;99373.13;;;11.70;77.73
11605;BME280;5858;43.076;25.626;2024-03-17T22:06:00;99456.03;;;12.22;77.93
11605;BME280;5858;43.076;25.626;2024-03-17T22:08:37;99424.66;;;12.01;77.66
11605;BME280;5858;43.076;25.626;2024-03-17T22:11:04;99417.19;;;11.96;78.02
11605;BME280;5858;43.076;25.626;2024-03-17T22:13:34;99420.81;;;11.89;77.86
11605;BME280;5858;43.076;25.626;2024-03-17T22:16:02;99362.25;;;11.56;77.44
11605;BME280;5858;43.076;25.626;2024-03-17T22:18:30;99392.44;;;11.80;76.85
11605;BME280;5858;43.076;25.626;2024-03-17T22:21:01;99436.22;;;12.02;76.37
11605;BME280;5858;43.076;25.626;2024-03-17T22:23:31;99396.13;;;11.79;76.20
11605;BME280;5858;43.076;25.626;2024-03-17T22:26:01;99389.13;;;11.78;76.63
11605;BME280;5858;43.076;25.626;2024-03-17T22:28:30;99454.00;;;12.24;75.77
11605;BME280;5858;43.076;25.626;2024-03-17T22:31:00;99435.78;;;12.19;74.77
11605;BME280;5858;43.076;25.626;2024-03-17T22:33:32;99431.50;;;12.04;75.81
11605;BME280;5858;43.076;25.626;2024-03-17T22:36:00;99370.50;;;11.76;74.96
11605;BME280;5858;43.076;25.626;2024-03-17T22:38:28;99446.25;;;12.14;75.22
11605;BME280;5858;43.076;25.626;2024-03-17T22:40:56;99437.81;;;12.17;74.97
11605;BME280;5858;43.076;25.626;2024-03-17T22:43:25;99341.00;;;11.55;76.30
11605;BME280;5858;43.076;25.626;2024-03-17T22:45:53;99349.13;;;11.61;77.00
11605;BME280;5858;43.076;25.626;2024-03-17T22:48:23;99345.66;;;11.46;76.93
11605;BME280;5858;43.076;25.626;2024-03-17T22:50:53;99427.00;;;11.89;77.65
11605;BME280;5858;43.076;25.626;2024-03-17T22:53:22;99359.50;;;11.50;77.73
11605;BME280;5858;43.076;25.626;2024-03-17T22:55:50;99365.13;;;11.55;77.97
11605;BME280;5858;43.076;25.626;2024-03-17T22:58:18;99425.78;;;11.77;79.65
11605;BME280;5858;43.076;25.626;2024-03-17T23:00:49;99420.72;;;11.82;78.25
11605;BME280;5858;43.076;25.626;2024-03-17T23:03:18;99429.50;;;11.91;78.76
11605;BME280;5858;43.076;25.626;2024-03-17T23:05:48;99387.66;;;11.60;79.39
11605;BME280;5858;43.076;25.626;2024-03-17T23:08:15;99429.69;;;11.89;78.29
11605;BME280;5858;43.076;25.626;2024-03-17T23:10:46;99419.88;;;11.82;79.30
11605;BME280;5858;43.076;25.626;2024-03-17T23:13:15;99383.91;;;11.40;80.09
11605;BME280;5858;43.076;25.626;2024-03-17T23:15:45;99391.38;;;11.45;80.33
11605;BME280;5858;43.076;25.626;2024-03-17T23:18:14;99404.50;;;11.54;80.86
11605;BME280;5858;43.076;25.626;2024-03-17T23:20:43;99394.88;;;11.30;80.70
11605;BME280;5858;43.076;25.626;2024-03-17T23:23:12;99392.50;;;11.35;80.98
11605;BME280;5858;43.076;25.626;2024-03-17T23:25:40;99420.41;;;11.41;81.08
11605;BME280;5858;43.076;25.626;2024-03-17T23:28:16;99327.97;;;10.86;81.16
11605;BME280;5858;43.076;25.626;2024-03-17T23:30:44;99255.53;;;10.44;81.21
11605;BME280;5858;43.076;25.626;2024-03-17T23:33:13;99313.84;;;10.78;80.61
11605;BME280;5858;43.076;25.626;2024-03-17T23:35:46;99411.91;;;11.38;80.84
11605;BME280;5858;43.076;25.626;2024-03-17T23:38:23;99222.47;;;10.22;80.76
11605;BME280;5858;43.076;25.626;2024-03-17T23:40:53;99252.56;;;10.38;80.15
11605;BME280;5858;43.076;25.626;2024-03-17T23:43:20;99258.34;;;10.27;81.19
11605;BME280;5858;43.076;25.626;2024-03-17T23:45:49;99348.72;;;10.84;81.56
11605;BME280;5858;43.076;25.626;2024-03-17T23:48:17;99287.81;;;10.42;81.77
11605;BME280;5858;43.076;25.626;2024-03-17T23:50:44;99400.34;;;11.08;82.63
11605;BME280;5858;43.076;25.626;2024-03-17T23:53:11;99385.41;;;10.98;83.64
11605;BME280;5858;43.076;25.626;2024-03-17T23:55:39;99313.66;;;10.50;84.00
11605;BME280;5858;43.076;25.626;2024-03-17T23:58:07;99340.97;;;10.60;84.96
